createdAt,value
2023-04-02T00:01:24.185Z,53.30
2023-04-02T00:03:59.589Z,53.12
2023-04-02T00:06:32.991Z,53.27
2023-04-02T00:09:13.232Z,53.22
2023-04-02T00:11:50.037Z,53.16
2023-04-02T00:14:31.127Z,53.17
2023-04-02T00:17:01.959Z,53.33
2023-04-02T00:19:52.288Z,53.20
2023-04-02T00:22:32.302Z,53.20
2023-04-02T00:25:07.750Z,53.46
2023-04-02T00:27:36.568Z,53.48
2023-04-02T00:30:05.217Z,53.44
2023-04-02T00:32:35.350Z,53.59
2023-04-02T00:35:04.809Z,53.51
2023-04-02T00:37:39.126Z,53.56
2023-04-02T00:40:30.593Z,53.56
2023-04-02T00:43:01.122Z,53.49
2023-04-02T00:45:31.976Z,53.71
2023-04-02T00:48:13.987Z,53.58
2023-04-02T00:50:44.254Z,53.57
2023-04-02T00:53:28.546Z,53.59
2023-04-02T00:56:01.370Z,53.64
2023-04-02T00:58:35.498Z,53.69
2023-04-02T01:01:04.694Z,53.81
2023-04-02T01:03:36.958Z,53.74
2023-04-02T01:06:15.464Z,53.71
2023-04-02T01:09:35.965Z,53.60
2023-04-02T01:12:29.853Z,53.78
2023-04-02T01:15:06.183Z,53.74
2023-04-02T01:18:31.320Z,53.60
2023-04-02T01:21:43.919Z,53.64
2023-04-02T01:24:13.952Z,53.59
2023-04-02T01:26:57.906Z,53.52
2023-04-02T01:29:42.145Z,53.55
2023-04-02T01:32:14.783Z,53.44
2023-04-02T01:34:46.573Z,53.63
2023-04-02T01:37:36.713Z,53.57
2023-04-02T01:40:19.494Z,53.63
2023-04-02T01:43:32.721Z,53.67
2023-04-02T01:46:23.406Z,53.68
2023-04-02T01:48:53.978Z,53.82
2023-04-02T01:51:33.477Z,53.61
2023-04-02T01:54:06.086Z,53.49
2023-04-02T01:56:35.585Z,53.52
2023-04-02T01:59:06.005Z,53.51
2023-04-02T02:01:49.224Z,53.17
2023-04-02T02:04:18.276Z,53.50
2023-04-02T02:06:47.311Z,53.43
2023-04-02T02:09:30.340Z,53.31
2023-04-02T02:12:00.241Z,53.53
2023-04-02T02:14:31.273Z,53.53
2023-04-02T02:17:02.462Z,53.54
2023-04-02T02:19:43.716Z,53.46
2023-04-02T02:22:35.644Z,53.50
2023-04-02T02:25:13.568Z,53.59
2023-04-02T02:27:47.072Z,53.58
2023-04-02T02:30:34.498Z,53.63
2023-04-02T02:33:34.136Z,53.59
2023-04-02T02:36:30.851Z,53.69
2023-04-02T02:39:43.359Z,53.77
2023-04-02T02:42:19.638Z,53.76
2023-04-02T02:44:51.281Z,53.77
2023-04-02T02:47:26.837Z,53.90
2023-04-02T02:49:59.330Z,53.83
2023-04-02T02:52:34.891Z,53.83
2023-04-02T02:55:16.071Z,53.95
2023-04-02T02:58:23.835Z,53.56
2023-04-02T03:01:06.311Z,53.93
2023-04-02T03:03:36.416Z,53.76
2023-04-02T03:06:13.746Z,53.62
2023-04-02T03:09:04.935Z,53.63
2023-04-02T03:11:56.862Z,53.69
2023-04-02T03:14:59.332Z,53.76
2023-04-02T03:17:45.940Z,53.94
2023-04-02T03:20:20.829Z,53.70
2023-04-02T03:23:23.707Z,53.74
2023-04-02T03:26:40.662Z,53.85
2023-04-02T03:29:27.881Z,54.04
2023-04-02T03:32:14.724Z,54.05
2023-04-02T03:34:57.085Z,53.99
2023-04-02T03:37:38.648Z,53.91
2023-04-02T03:40:24.815Z,53.92
2023-04-02T03:43:12.191Z,53.88
2023-04-02T03:45:45.944Z,53.99
2023-04-02T03:48:40.900Z,53.97
2023-04-02T03:51:27.459Z,54.06
2023-04-02T03:53:56.674Z,54.18
2023-04-02T03:56:39.859Z,53.93
2023-04-02T03:59:44.723Z,54.06
2023-04-02T04:02:47.410Z,54.00
2023-04-02T04:05:32.100Z,54.13
2023-04-02T04:08:14.012Z,54.25
2023-04-02T04:10:43.319Z,54.33
2023-04-02T04:13:22.513Z,54.27
2023-04-02T04:16:06.119Z,54.17
2023-04-02T04:19:10.902Z,54.19
2023-04-02T04:21:39.769Z,54.33
2023-04-02T04:24:25.767Z,54.32
2023-04-02T04:27:13.142Z,54.71
2023-04-02T04:30:24.500Z,54.56
2023-04-02T04:32:59.445Z,54.47
2023-04-02T04:35:40.376Z,54.53
2023-04-02T04:38:40.903Z,54.65
2023-04-02T04:41:19.877Z,54.71
2023-04-02T04:44:17.464Z,54.77
2023-04-02T04:47:31.016Z,55.06
2023-04-02T04:50:28.859Z,55.06
2023-04-02T04:52:57.730Z,55.17
2023-04-02T04:55:40.462Z,55.19
2023-04-02T04:58:42.854Z,55.25
2023-04-02T05:01:50.705Z,55.10
2023-04-02T05:04:41.544Z,55.51
2023-04-02T05:07:36.661Z,55.34
2023-04-02T05:10:38.992Z,55.36
2023-04-02T05:13:40.723Z,55.43
2023-04-02T05:16:36.355Z,55.43
2023-04-02T05:19:44.633Z,55.41
2023-04-02T05:22:30.727Z,55.43
2023-04-02T05:25:33.521Z,55.53
2023-04-02T05:28:37.954Z,55.40
2023-04-02T05:31:20.328Z,55.57
2023-04-02T05:33:50.383Z,55.69
2023-04-02T05:36:32.442Z,55.43
2023-04-02T05:39:02.331Z,55.59
2023-04-02T05:41:46.135Z,55.68
2023-04-02T05:44:35.799Z,55.57
2023-04-02T05:47:18.239Z,55.70
2023-04-02T05:50:05.832Z,55.70
2023-04-02T05:52:48.773Z,55.79
2023-04-02T05:55:18.125Z,55.78
2023-04-02T05:58:13.525Z,55.73
2023-04-02T06:01:15.663Z,55.84
2023-04-02T06:04:02.637Z,55.83
2023-04-02T06:06:41.561Z,55.96
2023-04-02T06:09:37.753Z,55.89
2023-04-02T06:12:31.319Z,56.00
2023-04-02T06:15:01.076Z,56.27
2023-04-02T06:17:43.108Z,56.45
2023-04-02T06:20:16.742Z,56.30
2023-04-02T06:23:01.865Z,56.24
2023-04-02T06:25:40.877Z,56.27
2023-04-02T06:28:19.800Z,56.32
2023-04-02T06:30:59.503Z,56.46
2023-04-02T06:33:29.840Z,56.30
2023-04-02T06:36:00.244Z,56.62
2023-04-02T06:38:34.272Z,56.64
2023-04-02T06:41:21.499Z,56.45
2023-04-02T06:44:22.888Z,56.66
2023-04-02T06:47:40.283Z,56.60
2023-04-02T06:50:26.974Z,56.88
2023-04-02T06:53:06.291Z,56.77
2023-04-02T06:56:01.181Z,56.81
2023-04-02T06:58:31.232Z,56.90
2023-04-02T07:00:59.641Z,56.75
2023-04-02T07:03:34.454Z,56.83
2023-04-02T07:06:16.577Z,56.70
2023-04-02T07:08:45.718Z,56.90
2023-04-02T07:11:21.956Z,56.71
2023-04-02T07:13:52.826Z,56.73
2023-04-02T07:16:27.607Z,56.70
2023-04-02T07:18:58.778Z,56.54
2023-04-02T07:21:28.702Z,56.70
2023-04-02T07:23:57.740Z,56.69
2023-04-02T07:26:28.005Z,56.75
2023-04-02T07:28:57.072Z,56.91
2023-04-02T07:31:28.172Z,56.95
2023-04-02T07:34:00.041Z,56.85
2023-04-02T07:36:29.405Z,56.80
2023-04-02T07:38:57.265Z,57.01
2023-04-02T07:41:26.227Z,57.25
2023-04-02T07:43:54.383Z,57.05
2023-04-02T07:46:22.193Z,57.17
2023-04-02T07:48:49.965Z,57.17
2023-04-02T07:51:26.136Z,56.95
2023-04-02T07:53:57.393Z,56.90
2023-04-02T07:56:25.812Z,56.76
2023-04-02T07:58:53.789Z,56.63
2023-04-02T08:01:26.750Z,56.35
2023-04-02T08:03:57.516Z,56.29
2023-04-02T08:06:25.907Z,56.41
2023-04-02T08:08:54.012Z,56.21
2023-04-02T08:11:21.912Z,56.25
2023-04-02T08:13:49.671Z,55.89
2023-04-02T08:16:17.671Z,56.07
2023-04-02T08:18:47.677Z,56.06
2023-04-02T08:21:16.770Z,55.77
2023-04-02T08:23:44.897Z,55.78
2023-04-02T08:26:20.419Z,55.70
2023-04-02T08:28:48.381Z,55.63
2023-04-02T08:31:17.353Z,55.67
2023-04-02T08:33:45.587Z,55.45
2023-04-02T08:36:18.561Z,55.16
2023-04-02T08:38:46.808Z,55.27
2023-04-02T08:41:27.987Z,54.36
2023-04-02T08:44:36.612Z,54.56
2023-04-02T08:47:09.510Z,54.72
2023-04-02T08:49:59.867Z,54.52
2023-04-02T08:52:38.026Z,54.86
2023-04-02T08:55:27.001Z,54.45
2023-04-02T08:58:13.946Z,54.21
2023-04-02T09:00:45.572Z,54.60
2023-04-02T09:03:47.217Z,54.36
2023-04-02T09:06:19.630Z,54.19
2023-04-02T09:08:50.607Z,53.94
2023-04-02T09:11:21.616Z,53.65
2023-04-02T09:13:58.411Z,53.61
2023-04-02T09:16:48.886Z,53.52
2023-04-02T09:19:23.861Z,53.67
2023-04-02T09:22:17.858Z,53.13
2023-04-02T09:24:55.737Z,52.47
2023-04-02T09:27:31.743Z,52.64
2023-04-02T09:30:23.315Z,52.25
2023-04-02T09:32:51.382Z,52.84
2023-04-02T09:35:33.801Z,53.03
2023-04-02T09:38:08.536Z,52.30
2023-04-02T09:41:06.571Z,51.76
2023-04-02T09:43:37.401Z,52.04
2023-04-02T09:46:18.805Z,51.73
2023-04-02T09:48:53.397Z,51.54
2023-04-02T09:51:28.211Z,51.63
2023-04-02T09:54:12.078Z,50.91
2023-04-02T09:56:58.094Z,51.01
2023-04-02T09:59:27.297Z,50.97
2023-04-02T10:01:54.897Z,50.78
2023-04-02T10:04:44.269Z,50.85
2023-04-02T10:07:44.242Z,50.65
2023-04-02T10:10:44.885Z,51.01
2023-04-02T10:13:45.914Z,51.07
2023-04-02T10:16:33.258Z,51.19
2023-04-02T10:19:27.551Z,51.34
2023-04-02T10:21:57.770Z,51.23
2023-04-02T10:24:28.255Z,51.15
2023-04-02T10:27:22.579Z,51.10
2023-04-02T10:30:16.802Z,51.11
2023-04-02T10:33:27.649Z,51.19
2023-04-02T10:36:23.277Z,51.07
2023-04-02T10:39:27.316Z,51.19
2023-04-02T10:42:46.794Z,51.53
2023-04-02T10:45:47.907Z,51.46
2023-04-02T10:48:34.839Z,51.40
2023-04-02T10:51:37.057Z,51.23
2023-04-02T10:54:47.819Z,51.29
2023-04-02T10:57:43.214Z,51.14
2023-04-02T11:00:11.401Z,51.22
2023-04-02T11:03:08.047Z,50.50
2023-04-02T11:05:56.964Z,50.41
2023-04-02T11:08:29.229Z,50.21
2023-04-02T11:11:27.309Z,49.58
2023-04-02T11:14:19.419Z,49.69
2023-04-02T11:16:50.327Z,49.79
2023-04-02T11:19:18.247Z,49.56
2023-04-02T11:21:58.001Z,49.44
2023-04-02T11:24:30.048Z,49.34
2023-04-02T11:27:11.346Z,49.07
2023-04-02T11:30:05.393Z,50.17
2023-04-02T11:32:39.199Z,49.50
2023-04-02T11:35:30.673Z,49.22
2023-04-02T11:38:04.211Z,49.36
2023-04-02T11:40:49.308Z,48.57
2023-04-02T11:43:33.623Z,49.10
2023-04-02T11:46:06.655Z,48.55
2023-04-02T11:48:36.431Z,48.61
2023-04-02T11:51:22.620Z,48.64
2023-04-02T11:53:55.578Z,48.59
2023-04-02T11:56:53.467Z,48.43
2023-04-02T12:00:23.300Z,48.97
2023-04-02T12:03:38.852Z,48.90
2023-04-02T12:06:30.100Z,48.82
2023-04-02T12:09:27.111Z,48.75
2023-04-02T12:12:23.842Z,48.49
2023-04-02T12:14:56.250Z,48.37
2023-04-02T12:17:39.801Z,47.84
2023-04-02T12:20:10.258Z,47.92
2023-04-02T12:22:48.161Z,47.44
2023-04-02T12:25:18.957Z,47.77
2023-04-02T12:27:47.453Z,49.23
2023-04-02T12:30:23.751Z,51.34
2023-04-02T12:32:52.153Z,53.93
2023-04-02T12:35:36.115Z,55.09
2023-04-02T12:38:04.007Z,56.77
2023-04-02T12:40:32.414Z,57.36
2023-04-02T12:43:00.346Z,58.46
2023-04-02T12:45:33.953Z,58.47
2023-04-02T12:48:06.132Z,59.00
2023-04-02T12:50:34.975Z,59.21
2023-04-02T12:53:03.489Z,59.95
2023-04-02T12:55:33.747Z,60.40
2023-04-02T12:58:01.666Z,60.75
2023-04-02T13:00:32.825Z,60.98
2023-04-02T13:03:06.819Z,60.88
2023-04-02T13:05:48.071Z,61.12
2023-04-02T13:08:30.737Z,61.57
2023-04-02T13:11:01.911Z,61.97
2023-04-02T13:13:43.531Z,61.68
2023-04-02T13:16:17.776Z,61.79
2023-04-02T13:18:50.730Z,61.48
2023-04-02T13:21:28.566Z,61.91
2023-04-02T13:23:56.575Z,62.06
2023-04-02T13:26:27.608Z,61.86
2023-04-02T13:29:02.248Z,61.62
2023-04-02T13:31:32.326Z,61.98
2023-04-02T13:34:00.162Z,62.17
2023-04-02T13:36:29.556Z,62.16
2023-04-02T13:38:57.864Z,62.26
2023-04-02T13:41:30.255Z,62.17
2023-04-02T13:44:01.306Z,62.51
2023-04-02T13:46:34.807Z,62.29
2023-04-02T13:49:04.805Z,62.72
2023-04-02T13:51:46.495Z,62.62
2023-04-02T13:54:41.478Z,63.14
2023-04-02T13:57:09.574Z,63.42
2023-04-02T13:59:37.602Z,63.40
2023-04-02T14:02:21.910Z,62.95
2023-04-02T14:05:00.464Z,63.32
2023-04-02T14:07:51.669Z,63.27
2023-04-02T14:10:43.640Z,63.35
2023-04-02T14:13:28.656Z,63.30
2023-04-02T14:16:35.886Z,63.40
2023-04-02T14:19:21.719Z,63.76
2023-04-02T14:22:11.934Z,63.85
2023-04-02T14:25:58.175Z,64.11
2023-04-02T14:28:42.873Z,64.28
2023-04-02T14:31:38.224Z,63.93
2023-04-02T14:34:16.009Z,64.28
2023-04-02T14:37:14.307Z,64.04
2023-04-02T14:40:17.290Z,64.17
2023-04-02T14:42:54.028Z,64.85
2023-04-02T14:45:33.475Z,64.69
2023-04-02T14:48:13.011Z,64.53
2023-04-02T14:50:43.562Z,64.33
2023-04-02T14:53:37.742Z,64.14
2023-04-02T14:56:08.494Z,65.03
2023-04-02T14:58:46.794Z,64.89
2023-04-02T15:01:37.472Z,64.67
2023-04-02T15:04:18.584Z,65.15
2023-04-02T15:06:56.498Z,64.75
2023-04-02T15:09:54.644Z,64.66
2023-04-02T15:12:25.511Z,65.09
2023-04-02T15:15:14.022Z,64.75
2023-04-02T15:17:41.903Z,65.30
2023-04-02T15:20:18.312Z,65.05
2023-04-02T15:23:09.400Z,64.73
2023-04-02T15:25:50.982Z,64.67
2023-04-02T15:28:40.850Z,64.60
2023-04-02T15:31:15.049Z,64.80
2023-04-02T15:33:49.740Z,64.66
2023-04-02T15:36:33.803Z,64.44
2023-04-02T15:40:03.157Z,64.61
2023-04-02T15:42:39.682Z,64.99
2023-04-02T15:45:07.637Z,65.02
2023-04-02T15:48:06.598Z,64.46
2023-04-02T15:50:46.767Z,64.68
2023-04-02T15:53:35.592Z,64.26
2023-04-02T15:56:08.976Z,64.68
2023-04-02T15:59:13.453Z,64.15
2023-04-02T16:02:16.944Z,64.06
2023-04-02T16:05:08.163Z,64.34
2023-04-02T16:07:52.488Z,64.24
2023-04-02T16:10:42.996Z,64.23
2023-04-02T16:13:32.419Z,64.42
2023-04-02T16:16:21.169Z,64.20
2023-04-02T16:19:16.593Z,64.18
2023-04-02T16:22:11.720Z,63.92
2023-04-02T16:24:39.415Z,64.09
2023-04-02T16:27:35.758Z,63.72
2023-04-02T16:30:50.043Z,63.79
2023-04-02T16:34:09.595Z,63.78
2023-04-02T16:37:04.449Z,63.98
2023-04-02T16:39:53.349Z,63.91
2023-04-02T16:42:54.773Z,63.52
2023-04-02T16:45:41.972Z,63.60
2023-04-02T16:49:24.781Z,63.59
2023-04-02T16:52:23.638Z,64.03
2023-04-02T16:55:24.124Z,63.78
2023-04-02T16:58:52.131Z,63.45
2023-04-02T17:02:02.290Z,63.63
2023-04-02T17:05:05.822Z,63.67
2023-04-02T17:08:03.038Z,63.55
2023-04-02T17:11:05.525Z,63.45
2023-04-02T17:14:06.119Z,63.31
2023-04-02T17:16:46.215Z,62.88
2023-04-02T17:19:18.028Z,63.23
2023-04-02T17:21:51.964Z,62.67
2023-04-02T17:24:39.133Z,62.30
2023-04-02T17:27:30.376Z,62.24
2023-04-02T17:30:23.508Z,62.01
2023-04-02T17:32:55.085Z,62.19
2023-04-02T17:35:34.800Z,61.87
2023-04-02T17:38:34.185Z,61.57
2023-04-02T17:41:28.883Z,61.41
2023-04-02T17:44:52.828Z,60.78
2023-04-02T17:47:30.360Z,61.26
2023-04-02T17:50:28.967Z,60.39
2023-04-02T17:53:28.270Z,60.18
2023-04-02T17:56:32.512Z,60.01
2023-04-02T17:59:13.322Z,59.91
2023-04-02T18:02:02.950Z,59.71
2023-04-02T18:04:46.811Z,59.65
2023-04-02T18:07:41.851Z,59.11
2023-04-02T18:10:42.547Z,58.91
2023-04-02T18:13:58.543Z,58.64
2023-04-02T18:17:01.599Z,58.10
2023-04-02T18:19:50.594Z,58.27
2023-04-02T18:22:31.102Z,57.76
2023-04-02T18:25:31.361Z,57.14
2023-04-02T18:28:22.884Z,57.07
2023-04-02T18:31:16.698Z,56.73
2023-04-02T18:34:02.061Z,56.41
2023-04-02T18:36:40.028Z,56.58
2023-04-02T18:40:10.924Z,56.21
2023-04-02T18:43:33.013Z,56.39
2023-04-02T18:46:36.204Z,55.81
2023-04-02T18:49:42.486Z,55.90
2023-04-02T18:52:17.861Z,55.50
2023-04-02T18:54:55.628Z,55.23
2023-04-02T18:57:30.133Z,55.15
2023-04-02T19:00:06.887Z,55.15
2023-04-02T19:02:47.618Z,54.26
2023-04-02T19:05:36.406Z,54.13
2023-04-02T19:08:11.184Z,54.18
2023-04-02T19:10:44.016Z,54.24
2023-04-02T19:13:18.763Z,53.55
2023-04-02T19:16:42.887Z,53.27
2023-04-02T19:19:39.028Z,52.90
2023-04-02T19:22:18.130Z,52.87
2023-04-02T19:25:07.915Z,52.07
2023-04-02T19:27:55.018Z,52.04
2023-04-02T19:30:57.326Z,51.48
2023-04-02T19:33:42.834Z,52.17
2023-04-02T19:36:40.413Z,51.80
2023-04-02T19:39:36.446Z,51.49
2023-04-02T19:42:23.108Z,50.79
2023-04-02T19:44:53.447Z,51.46
2023-04-02T19:47:24.602Z,51.03
2023-04-02T19:49:52.724Z,51.03
2023-04-02T19:52:21.090Z,51.07
2023-04-02T19:54:51.278Z,50.66
2023-04-02T19:57:19.272Z,50.70
2023-04-02T19:59:47.249Z,50.47
2023-04-02T20:02:14.908Z,49.75
2023-04-02T20:04:42.825Z,50.31
2023-04-02T20:07:10.766Z,50.48
2023-04-02T20:09:38.840Z,49.68
2023-04-02T20:12:07.122Z,49.74
2023-04-02T20:14:38.635Z,50.18
2023-04-02T20:17:06.605Z,50.05
2023-04-02T20:19:34.490Z,49.92
2023-04-02T20:22:02.202Z,49.47
2023-04-02T20:24:30.050Z,49.66
2023-04-02T20:26:58.622Z,49.47
2023-04-02T20:29:28.081Z,49.60
2023-04-02T20:32:01.310Z,49.85
2023-04-02T20:34:30.343Z,49.97
2023-04-02T20:36:58.134Z,49.97
2023-04-02T20:39:25.978Z,49.61
2023-04-02T20:41:53.750Z,49.95
2023-04-02T20:44:21.834Z,49.28
2023-04-02T20:46:49.826Z,49.13
2023-04-02T20:49:17.932Z,49.37
2023-04-02T20:51:47.340Z,48.76
2023-04-02T20:54:17.600Z,49.00
2023-04-02T20:56:45.445Z,49.19
2023-04-02T20:59:13.200Z,48.84
2023-04-02T21:01:41.007Z,48.92
2023-04-02T21:04:09.188Z,48.54
2023-04-02T21:06:39.290Z,48.70
2023-04-02T21:09:14.563Z,48.60
2023-04-02T21:11:43.414Z,48.87
2023-04-02T21:14:11.802Z,48.56
2023-04-02T21:16:41.188Z,48.56
2023-04-02T21:19:10.119Z,48.19
2023-04-02T21:21:40.570Z,48.26
2023-04-02T21:24:09.474Z,48.22
2023-04-02T21:26:41.036Z,48.33
2023-04-02T21:29:11.310Z,47.90
2023-04-02T21:31:40.842Z,48.37
2023-04-02T21:34:13.644Z,48.09
2023-04-02T21:36:46.526Z,48.13
2023-04-02T21:39:24.042Z,48.74
2023-04-02T21:41:53.460Z,48.42
2023-04-02T21:44:24.054Z,48.19
2023-04-02T21:46:54.106Z,48.40
2023-04-02T21:49:23.011Z,48.15
2023-04-02T21:51:54.019Z,48.06
2023-04-02T21:54:21.876Z,48.02
2023-04-02T21:56:50.384Z,48.24
2023-04-02T21:59:19.021Z,48.63
2023-04-02T22:01:51.117Z,47.95
2023-04-02T22:04:25.365Z,48.08
2023-04-02T22:06:54.087Z,48.21
2023-04-02T22:09:25.166Z,48.31
2023-04-02T22:12:00.299Z,48.37
2023-04-02T22:14:28.900Z,48.26
2023-04-02T22:16:58.621Z,48.42
2023-04-02T22:19:27.344Z,48.53
2023-04-02T22:21:56.369Z,47.69
2023-04-02T22:24:25.121Z,47.18
2023-04-02T22:26:54.750Z,47.08
2023-04-02T22:29:22.661Z,47.43
2023-04-02T22:31:50.380Z,47.33
2023-04-02T22:34:18.765Z,47.22
2023-04-02T22:37:06.736Z,47.13
2023-04-02T22:39:36.022Z,46.78
2023-04-02T22:42:03.775Z,46.69
2023-04-02T22:44:31.595Z,46.58
2023-04-02T22:46:59.363Z,46.81
2023-04-02T22:49:30.035Z,46.60
2023-04-02T22:51:58.210Z,46.40
2023-04-02T22:54:25.875Z,46.33
2023-04-02T22:56:55.320Z,46.18
2023-04-02T22:59:24.934Z,46.50
2023-04-02T23:01:52.861Z,46.33
2023-04-02T23:04:20.776Z,46.40
2023-04-02T23:06:48.526Z,46.25
2023-04-02T23:09:16.541Z,46.26
2023-04-02T23:11:44.302Z,46.04
2023-04-02T23:14:12.190Z,46.16
2023-04-02T23:16:40.345Z,46.20
2023-04-02T23:19:08.160Z,45.74
2023-04-02T23:21:36.181Z,46.19
2023-04-02T23:24:04.359Z,46.26
2023-04-02T23:26:32.998Z,46.29
2023-04-02T23:29:01.899Z,45.81
2023-04-02T23:31:29.993Z,46.05
2023-04-02T23:33:58.529Z,46.01
2023-04-02T23:36:30.335Z,45.84
2023-04-02T23:39:02.137Z,46.04
2023-04-02T23:41:30.815Z,46.78
2023-04-02T23:43:59.501Z,46.61
2023-04-02T23:46:29.759Z,46.43
2023-04-02T23:49:01.568Z,46.65
2023-04-02T23:51:32.191Z,46.56
2023-04-02T23:54:00.627Z,46.78
2023-04-02T23:56:28.621Z,46.70
2023-04-02T23:58:56.544Z,46.51
